sensor_id;sensor_type;location;lat;lon;timestamp;pressure;altitude;pressure_sealevel;temperature;humidity
73692;BME280;61996;49.910;35.562;2022-09-24T00:02:37;98742.00;;;17.98;51.78
73692;BME280;61996;49.910;35.562;2022-09-24T00:05:40;98736.59;;;18.08;52.02
73692;BME280;61996;49.910;35.562;2022-09-24T00:08:43;98733.88;;;18.00;51.50
73692;BME280;61996;49.910;35.562;2022-09-24T00:11:47;98738.34;;;17.99;51.90
73692;BME280;61996;49.910;35.562;2022-09-24T00:14:50;98735.25;;;18.04;51.81
73692;BME280;61996;49.910;35.562;2022-09-24T00:17:53;98737.00;;;17.95;52.31
73692;BME280;61996;49.910;35.562;2022-09-24T00:20:56;98728.41;;;18.01;51.82
73692;BME280;61996;49.910;35.562;2022-09-24T00:23:59;98723.38;;;17.98;51.87
73692;BME280;61996;49.910;35.562;2022-09-24T00:27:04;98724.81;;;18.11;51.54
73692;BME280;61996;49.910;35.562;2022-09-24T00:30:06;98724.81;;;18.11;51.28
73692;BME280;61996;49.910;35.562;2022-09-24T00:33:09;98720.31;;;18.11;51.76
73692;BME280;61996;49.910;35.562;2022-09-24T00:36:12;98725.63;;;18.11;51.36
73692;BME280;61996;49.910;35.562;2022-09-24T00:39:15;98722.44;;;18.07;51.35
73692;BME280;61996;49.910;35.562;2022-09-24T00:42:20;98725.97;;;18.08;51.65
73692;BME280;61996;49.910;35.562;2022-09-24T00:45:23;98716.44;;;18.05;51.79
73692;BME280;61996;49.910;35.562;2022-09-24T00:48:26;98717.50;;;18.13;51.63
73692;BME280;61996;49.910;35.562;2022-09-24T00:51:29;98709.56;;;18.21;51.25
73692;BME280;61996;49.910;35.562;2022-09-24T00:54:33;98713.63;;;18.07;51.64
73692;BME280;61996;49.910;35.562;2022-09-24T00:57:39;98713.34;;;18.10;51.10
73692;BME280;61996;49.910;35.562;2022-09-24T01:00:43;98713.09;;;17.77;51.08
73692;BME280;61996;49.910;35.562;2022-09-24T01:03:46;98716.91;;;17.75;52.07
73692;BME280;61996;49.910;35.562;2022-09-24T01:06:51;98709.34;;;17.70;51.48
73692;BME280;61996;49.910;35.562;2022-09-24T01:09:54;98710.75;;;18.00;50.92
73692;BME280;61996;49.910;35.562;2022-09-24T01:12:59;98707.84;;;17.68;52.43
73692;BME280;61996;49.910;35.562;2022-09-24T01:16:06;98710.50;;;17.50;51.65
73692;BME280;61996;49.910;35.562;2022-09-24T01:19:16;98709.34;;;17.70;52.86
73692;BME280;61996;49.910;35.562;2022-09-24T01:22:26;98706.59;;;17.80;51.86
73692;BME280;61996;49.910;35.562;2022-09-24T01:25:36;98704.19;;;17.69;51.86
73692;BME280;61996;49.910;35.562;2022-09-24T01:28:47;98711.09;;;17.62;51.33
73692;BME280;61996;49.910;35.562;2022-09-24T01:31:58;98701.34;;;17.70;52.00
73692;BME280;61996;49.910;35.562;2022-09-24T01:35:05;98694.84;;;17.83;51.99
73692;BME280;61996;49.910;35.562;2022-09-24T01:38:12;98701.94;;;17.74;51.98
73692;BME280;61996;49.910;35.562;2022-09-24T01:41:16;98699.69;;;17.69;51.88
73692;BME280;61996;49.910;35.562;2022-09-24T01:44:20;98705.84;;;17.70;51.90
73692;BME280;61996;49.910;35.562;2022-09-24T01:47:29;98700.84;;;17.67;51.49
73692;BME280;61996;49.910;35.562;2022-09-24T01:50:37;98694.31;;;17.61;51.72
73692;BME280;61996;49.910;35.562;2022-09-24T01:53:43;98704.13;;;17.61;51.70
73692;BME280;61996;49.910;35.562;2022-09-24T01:56:46;98706.00;;;17.68;50.83
73692;BME280;61996;49.910;35.562;2022-09-24T01:59:54;98709.78;;;17.66;51.98
73692;BME280;61996;49.910;35.562;2022-09-24T02:03:01;98700.84;;;17.67;52.02
73692;BME280;61996;49.910;35.562;2022-09-24T02:06:07;98707.59;;;17.61;51.44
73692;BME280;61996;49.910;35.562;2022-09-24T02:09:31;98712.53;;;17.56;51.42
73692;BME280;61996;49.910;35.562;2022-09-24T02:12:34;98707.53;;;17.53;51.11
73692;BME280;61996;49.910;35.562;2022-09-24T02:15:43;98693.69;;;17.67;51.29
73692;BME280;61996;49.910;35.562;2022-09-24T02:18:51;98704.28;;;17.77;51.31
73692;BME280;61996;49.910;35.562;2022-09-24T02:21:54;98697.75;;;17.53;51.99
73692;BME280;61996;49.910;35.562;2022-09-24T02:24:59;98709.06;;;17.56;50.77
73692;BME280;61996;49.910;35.562;2022-09-24T02:28:02;98709.88;;;17.56;51.37
73692;BME280;61996;49.910;35.562;2022-09-24T02:31:05;98704.34;;;17.67;51.26
73692;BME280;61996;49.910;35.562;2022-09-24T02:34:12;98710.72;;;17.57;51.51
73692;BME280;61996;49.910;35.562;2022-09-24T02:37:23;98710.78;;;17.65;51.09
73692;BME280;61996;49.910;35.562;2022-09-24T02:40:25;98714.75;;;17.61;51.98
73692;BME280;61996;49.910;35.562;2022-09-24T02:43:29;98720.59;;;17.64;50.78
73692;BME280;61996;49.910;35.562;2022-09-24T02:46:32;98722.44;;;17.46;52.10
73692;BME280;61996;49.910;35.562;2022-09-24T02:49:37;98728.56;;;17.46;51.67
73692;BME280;61996;49.910;35.562;2022-09-24T02:52:39;98724.41;;;17.62;51.43
73692;BME280;61996;49.910;35.562;2022-09-24T02:55:44;98727.59;;;17.47;52.27
73692;BME280;61996;49.910;35.562;2022-09-24T02:58:46;98723.28;;;17.82;51.30
73692;BME280;61996;49.910;35.562;2022-09-24T03:01:49;98739.88;;;17.48;51.23
73692;BME280;61996;49.910;35.562;2022-09-24T03:04:54;98728.28;;;17.67;51.70
73692;BME280;61996;49.910;35.562;2022-09-24T03:07:56;98728.09;;;17.69;52.07
73692;BME280;61996;49.910;35.562;2022-09-24T03:10:59;98726.66;;;17.57;52.08
73692;BME280;61996;49.910;35.562;2022-09-24T03:14:02;98727.34;;;17.59;51.93
73692;BME280;61996;49.910;35.562;2022-09-24T03:17:05;98718.47;;;17.68;51.42
73692;BME280;61996;49.910;35.562;2022-09-24T03:20:09;98723.19;;;17.56;52.66
73692;BME280;61996;49.910;35.562;2022-09-24T03:23:12;98726.38;;;17.60;51.97
73692;BME280;61996;49.910;35.562;2022-09-24T03:26:15;98726.66;;;17.57;51.96
73692;BME280;61996;49.910;35.562;2022-09-24T03:29:18;98724.56;;;17.60;52.06
73692;BME280;61996;49.910;35.562;2022-09-24T03:32:41;98708.09;;;17.74;51.42
73692;BME280;61996;49.910;35.562;2022-09-24T03:35:44;98718.41;;;17.60;52.09
73692;BME280;61996;49.910;35.562;2022-09-24T03:38:47;98716.88;;;17.57;52.28
73692;BME280;61996;49.910;35.562;2022-09-24T03:41:50;98709.91;;;17.74;50.91
73692;BME280;61996;49.910;35.562;2022-09-24T03:44:53;98715.50;;;17.53;52.55
73692;BME280;61996;49.910;35.562;2022-09-24T03:47:55;98720.22;;;17.41;51.54
73692;BME280;61996;49.910;35.562;2022-09-24T03:51:02;98720.84;;;17.71;51.87
73692;BME280;61996;49.910;35.562;2022-09-24T03:54:05;98723.78;;;17.68;52.08
73692;BME280;61996;49.910;35.562;2022-09-24T03:57:08;98731.31;;;17.72;51.29
73692;BME280;61996;49.910;35.562;2022-09-24T04:00:15;98732.38;;;17.79;51.67
73692;BME280;61996;49.910;35.562;2022-09-24T04:03:17;98730.03;;;17.76;51.75
73692;BME280;61996;49.910;35.562;2022-09-24T04:06:22;98725.09;;;17.82;51.77
73692;BME280;61996;49.910;35.562;2022-09-24T04:09:27;98725.06;;;17.64;51.70
73692;BME280;61996;49.910;35.562;2022-09-24T04:12:30;98728.41;;;17.66;52.02
73692;BME280;61996;49.910;35.562;2022-09-24T04:15:33;98729.66;;;17.71;51.19
73692;BME280;61996;49.910;35.562;2022-09-24T04:18:35;98728.34;;;17.58;51.74
73692;BME280;61996;49.910;35.562;2022-09-24T04:21:41;98730.16;;;17.39;52.72
73692;BME280;61996;49.910;35.562;2022-09-24T04:24:44;98729.50;;;17.73;52.61
73692;BME280;61996;49.910;35.562;2022-09-24T04:27:51;98733.41;;;17.51;51.58
73692;BME280;61996;49.910;35.562;2022-09-24T04:30:54;98734.41;;;17.68;52.42
73692;BME280;61996;49.910;35.562;2022-09-24T04:33:57;98737.25;;;17.66;52.13
73692;BME280;61996;49.910;35.562;2022-09-24T04:37:03;98733.66;;;17.58;52.18
73692;BME280;61996;49.910;35.562;2022-09-24T04:40:06;98729.88;;;17.78;51.72
73692;BME280;61996;49.910;35.562;2022-09-24T04:43:13;98732.25;;;17.81;51.41
73692;BME280;61996;49.910;35.562;2022-09-24T04:46:15;98733.84;;;17.74;51.52
73692;BME280;61996;49.910;35.562;2022-09-24T04:49:19;98735.34;;;17.94;51.41
73692;BME280;61996;49.910;35.562;2022-09-24T04:52:23;98737.47;;;17.91;51.54
73692;BME280;61996;49.910;35.562;2022-09-24T04:55:30;98736.78;;;17.71;51.97
73692;BME280;61996;49.910;35.562;2022-09-24T04:58:33;98739.91;;;17.84;51.56
73692;BME280;61996;49.910;35.562;2022-09-24T05:01:36;98730.97;;;17.93;51.55
73692;BME280;61996;49.910;35.562;2022-09-24T05:04:39;98728.09;;;18.04;51.11
73692;BME280;61996;49.910;35.562;2022-09-24T05:07:43;98733.66;;;17.93;51.06
73692;BME280;61996;49.910;35.562;2022-09-24T05:10:46;98738.53;;;17.80;51.80
73692;BME280;61996;49.910;35.562;2022-09-24T05:13:48;98734.56;;;18.02;51.12
73692;BME280;61996;49.910;35.562;2022-09-24T05:16:51;98737.06;;;18.03;51.22
73692;BME280;61996;49.910;35.562;2022-09-24T05:19:54;98744.44;;;17.92;51.46
73692;BME280;61996;49.910;35.562;2022-09-24T05:22:59;98746.59;;;17.88;51.73
73692;BME280;61996;49.910;35.562;2022-09-24T05:26:02;98747.72;;;17.86;51.93
73692;BME280;61996;49.910;35.562;2022-09-24T05:29:22;98748.88;;;17.83;51.71
73692;BME280;61996;49.910;35.562;2022-09-24T05:32:25;98744.78;;;17.71;51.59
73692;BME280;61996;49.910;35.562;2022-09-24T05:35:28;98743.59;;;18.09;50.79
73692;BME280;61996;49.910;35.562;2022-09-24T05:38:32;98738.66;;;17.96;51.03
73692;BME280;61996;49.910;35.562;2022-09-24T05:41:34;98742.81;;;18.17;51.16
73692;BME280;61996;49.910;35.562;2022-09-24T05:44:37;98747.88;;;18.02;51.25
73692;BME280;61996;49.910;35.562;2022-09-24T05:47:40;98738.97;;;17.93;51.74
73692;BME280;61996;49.910;35.562;2022-09-24T05:50:42;98739.94;;;18.10;51.35
73692;BME280;61996;49.910;35.562;2022-09-24T05:53:47;98742.75;;;18.08;51.36
73692;BME280;61996;49.910;35.562;2022-09-24T05:56:50;98740.28;;;17.89;51.62
73692;BME280;61996;49.910;35.562;2022-09-24T05:59:53;98750.19;;;18.23;52.34
73692;BME280;61996;49.910;35.562;2022-09-24T06:03:00;98751.56;;;18.35;51.83
73692;BME280;61996;49.910;35.562;2022-09-24T06:06:03;98751.97;;;18.48;51.43
73692;BME280;61996;49.910;35.562;2022-09-24T06:09:07;98749.16;;;18.76;51.34
73692;BME280;61996;49.910;35.562;2022-09-24T06:12:10;98752.19;;;18.81;51.75
73692;BME280;61996;49.910;35.562;2022-09-24T06:15:13;98746.53;;;18.84;52.54
73692;BME280;61996;49.910;35.562;2022-09-24T06:18:16;98752.09;;;18.99;51.79
73692;BME280;61996;49.910;35.562;2022-09-24T06:21:18;98745.13;;;19.06;51.71
73692;BME280;61996;49.910;35.562;2022-09-24T06:24:22;98757.50;;;19.15;51.47
73692;BME280;61996;49.910;35.562;2022-09-24T06:27:25;98751.53;;;19.29;51.28
73692;BME280;61996;49.910;35.562;2022-09-24T06:30:29;98765.53;;;19.31;50.92
73692;BME280;61996;49.910;35.562;2022-09-24T06:33:32;98756.69;;;19.39;50.94
73692;BME280;61996;49.910;35.562;2022-09-24T06:36:34;98757.06;;;19.44;50.58
73692;BME280;61996;49.910;35.562;2022-09-24T06:39:38;98759.41;;;19.47;50.28
73692;BME280;61996;49.910;35.562;2022-09-24T06:42:41;98761.09;;;19.56;49.84
73692;BME280;61996;49.910;35.562;2022-09-24T06:45:44;98752.78;;;19.59;49.94
73692;BME280;61996;49.910;35.562;2022-09-24T06:48:47;98766.81;;;19.61;49.79
73692;BME280;61996;49.910;35.562;2022-09-24T06:51:52;98764.63;;;19.65;49.87
73692;BME280;61996;49.910;35.562;2022-09-24T06:54:56;98761.09;;;19.56;49.87
73692;BME280;61996;49.910;35.562;2022-09-24T06:58:02;98767.41;;;19.55;49.64
73692;BME280;61996;49.910;35.562;2022-09-24T07:01:05;98764.28;;;19.60;49.72
73692;BME280;61996;49.910;35.562;2022-09-24T07:04:08;98769.13;;;19.64;49.97
73692;BME280;61996;49.910;35.562;2022-09-24T07:07:11;98773.97;;;19.69;50.02
73692;BME280;61996;49.910;35.562;2022-09-24T07:10:34;98766.97;;;19.84;49.95
73692;BME280;61996;49.910;35.562;2022-09-24T07:13:38;98766.31;;;19.82;49.85
73692;BME280;61996;49.910;35.562;2022-09-24T07:16:41;98769.81;;;19.91;49.44
73692;BME280;61996;49.910;35.562;2022-09-24T07:19:43;98782.16;;;19.92;49.59
73692;BME280;61996;49.910;35.562;2022-09-24T07:22:46;98774.16;;;20.00;49.13
73692;BME280;61996;49.910;35.562;2022-09-24T07:25:54;98776.66;;;20.02;49.20
73692;BME280;61996;49.910;35.562;2022-09-24T07:28:56;98774.16;;;20.08;49.38
73692;BME280;61996;49.910;35.562;2022-09-24T07:31:59;98770.31;;;20.11;48.93
73692;BME280;61996;49.910;35.562;2022-09-24T07:35:02;98770.31;;;20.03;49.10
73692;BME280;61996;49.910;35.562;2022-09-24T07:38:05;98764.47;;;19.99;48.94
73692;BME280;61996;49.910;35.562;2022-09-24T07:41:11;98766.63;;;19.95;48.86
73692;BME280;61996;49.910;35.562;2022-09-24T07:44:13;98768.16;;;19.98;48.84
73692;BME280;61996;49.910;35.562;2022-09-24T07:47:16;98760.50;;;20.03;48.41
73692;BME280;61996;49.910;35.562;2022-09-24T07:50:19;98761.31;;;20.04;48.60
73692;BME280;61996;49.910;35.562;2022-09-24T07:53:22;98758.97;;;20.17;48.50
73692;BME280;61996;49.910;35.562;2022-09-24T07:56:27;98757.78;;;20.27;51.04
73692;BME280;61996;49.910;35.562;2022-09-24T07:59:29;98760.97;;;20.31;49.66
73692;BME280;61996;49.910;35.562;2022-09-24T08:02:32;98750.44;;;20.46;48.98
73692;BME280;61996;49.910;35.562;2022-09-24T08:05:40;98753.75;;;20.56;48.88
73692;BME280;61996;49.910;35.562;2022-09-24T08:08:44;98751.72;;;20.58;48.42
73692;BME280;61996;49.910;35.562;2022-09-24T08:11:48;98743.38;;;20.61;48.51
73692;BME280;61996;49.910;35.562;2022-09-24T08:14:52;98745.19;;;20.69;48.29
73692;BME280;61996;49.910;35.562;2022-09-24T08:17:59;98739.69;;;20.70;48.10
73692;BME280;61996;49.910;35.562;2022-09-24T08:21:02;98740.66;;;20.77;47.67
73692;BME280;61996;49.910;35.562;2022-09-24T08:24:05;98746.13;;;20.84;47.89
73692;BME280;61996;49.910;35.562;2022-09-24T08:27:09;98751.00;;;20.80;47.70
73692;BME280;61996;49.910;35.562;2022-09-24T08:30:17;98746.13;;;20.84;47.62
73692;BME280;61996;49.910;35.562;2022-09-24T08:33:22;98757.63;;;20.93;47.17
73692;BME280;61996;49.910;35.562;2022-09-24T08:36:24;98755.81;;;20.85;47.21
73692;BME280;61996;49.910;35.562;2022-09-24T08:39:28;98750.63;;;20.92;47.41
73692;BME280;61996;49.910;35.562;2022-09-24T08:42:35;98752.97;;;20.95;47.37
73692;BME280;61996;49.910;35.562;2022-09-24T08:45:41;98750.94;;;20.97;47.15
73692;BME280;61996;49.910;35.562;2022-09-24T08:49:03;98762.13;;;21.00;46.61
73692;BME280;61996;49.910;35.562;2022-09-24T08:52:12;98751.88;;;21.12;46.51
73692;BME280;61996;49.910;35.562;2022-09-24T08:55:24;98749.88;;;21.06;46.99
73692;BME280;61996;49.910;35.562;2022-09-24T08:58:32;98754.94;;;21.01;47.04
73692;BME280;61996;49.910;35.562;2022-09-24T09:01:45;98756.94;;;20.99;47.05
73692;BME280;61996;49.910;35.562;2022-09-24T09:04:54;98756.06;;;21.06;47.30
73692;BME280;61996;49.910;35.562;2022-09-24T09:08:01;98755.22;;;21.06;47.28
73692;BME280;61996;49.910;35.562;2022-09-24T09:11:31;98751.91;;;21.04;47.31
73692;BME280;61996;49.910;35.562;2022-09-24T09:14:37;98754.06;;;21.08;47.29
73692;BME280;61996;49.910;35.562;2022-09-24T09:17:43;98752.69;;;21.13;47.31
73692;BME280;61996;49.910;35.562;2022-09-24T09:20:48;98750.03;;;21.13;47.35
73692;BME280;61996;49.910;35.562;2022-09-24T09:23:53;98743.97;;;21.19;47.41
73692;BME280;61996;49.910;35.562;2022-09-24T09:26:57;98743.16;;;21.18;47.17
73692;BME280;61996;49.910;35.562;2022-09-24T09:30:03;98742.81;;;21.21;46.94
73692;BME280;61996;49.910;35.562;2022-09-24T09:33:19;98740.47;;;21.18;47.14
73692;BME280;61996;49.910;35.562;2022-09-24T09:36:28;98742.44;;;21.24;47.23
73692;BME280;61996;49.910;35.562;2022-09-24T09:39:36;98741.13;;;21.20;47.33
73692;BME280;61996;49.910;35.562;2022-09-24T09:42:40;98739.81;;;20.77;47.36
73692;BME280;61996;49.910;35.562;2022-09-24T09:45:57;98735.69;;;20.58;48.06
73692;BME280;61996;49.910;35.562;2022-09-24T09:49:01;98739.09;;;20.27;47.35
73692;BME280;61996;49.910;35.562;2022-09-24T09:52:09;98732.41;;;20.40;47.16
73692;BME280;61996;49.910;35.562;2022-09-24T09:55:22;98736.75;;;20.16;46.84
73692;BME280;61996;49.910;35.562;2022-09-24T09:58:25;98739.78;;;20.13;47.03
73692;BME280;61996;49.910;35.562;2022-09-24T10:01:31;98738.97;;;20.05;46.34
73692;BME280;61996;49.910;35.562;2022-09-24T10:04:35;98738.47;;;19.85;46.79
73692;BME280;61996;49.910;35.562;2022-09-24T10:07:43;98742.31;;;19.90;47.20
73692;BME280;61996;49.910;35.562;2022-09-24T10:10:51;98735.28;;;20.06;46.99
73692;BME280;61996;49.910;35.562;2022-09-24T10:14:00;98731.44;;;20.08;46.88
73692;BME280;61996;49.910;35.562;2022-09-24T10:17:04;98726.06;;;20.33;46.86
73692;BME280;61996;49.910;35.562;2022-09-24T10:20:08;98727.72;;;20.34;46.32
73692;BME280;61996;49.910;35.562;2022-09-24T10:23:13;98727.72;;;20.42;45.71
73692;BME280;61996;49.910;35.562;2022-09-24T10:26:20;98735.59;;;20.19;45.17
73692;BME280;61996;49.910;35.562;2022-09-24T10:29:25;98732.13;;;20.10;45.19
73692;BME280;61996;49.910;35.562;2022-09-24T10:32:54;98730.78;;;20.06;45.60
73692;BME280;61996;49.910;35.562;2022-09-24T10:36:02;98718.69;;;20.59;44.10
73692;BME280;61996;49.910;35.562;2022-09-24T10:39:08;98716.63;;;20.69;44.05
73692;BME280;61996;49.910;35.562;2022-09-24T10:42:22;98715.06;;;20.27;44.80
73692;BME280;61996;49.910;35.562;2022-09-24T10:45:27;98727.09;;;20.15;45.36
73692;BME280;61996;49.910;35.562;2022-09-24T10:48:34;98737.63;;;19.84;45.67
73692;BME280;61996;49.910;35.562;2022-09-24T10:51:40;98738.59;;;19.67;44.83
73692;BME280;61996;49.910;35.562;2022-09-24T10:54:49;98731.50;;;18.75;48.62
73692;BME280;61996;49.910;35.562;2022-09-24T10:57:56;98733.88;;;18.78;51.07
73692;BME280;61996;49.910;35.562;2022-09-24T11:01:03;98734.16;;;18.67;51.95
73692;BME280;61996;49.910;35.562;2022-09-24T11:04:22;98729.28;;;19.63;50.53
73692;BME280;61996;49.910;35.562;2022-09-24T11:07:40;98724.44;;;19.99;49.25
73692;BME280;61996;49.910;35.562;2022-09-24T11:10:52;98730.59;;;20.08;47.68
73692;BME280;61996;49.910;35.562;2022-09-24T11:14:00;98722.75;;;20.31;51.55
73692;BME280;61996;49.910;35.562;2022-09-24T11:17:14;98734.41;;;20.38;48.31
73692;BME280;61996;49.910;35.562;2022-09-24T11:20:26;98725.41;;;20.31;49.08
73692;BME280;61996;49.910;35.562;2022-09-24T11:23:34;98719.72;;;20.34;50.34
73692;BME280;61996;49.910;35.562;2022-09-24T11:26:45;98727.53;;;20.43;47.56
73692;BME280;61996;49.910;35.562;2022-09-24T11:29:55;98738.09;;;20.20;47.49
73692;BME280;61996;49.910;35.562;2022-09-24T11:33:06;98728.59;;;20.26;48.12
73692;BME280;61996;49.910;35.562;2022-09-24T11:36:29;98730.06;;;20.29;48.09
73692;BME280;61996;49.910;35.562;2022-09-24T11:39:37;98733.06;;;20.34;48.76
73692;BME280;61996;49.910;35.562;2022-09-24T11:42:46;98737.75;;;20.23;48.56
73692;BME280;61996;49.910;35.562;2022-09-24T11:45:56;98739.91;;;20.36;48.79
73692;BME280;61996;49.910;35.562;2022-09-24T11:49:08;98733.75;;;20.27;49.07
73692;BME280;61996;49.910;35.562;2022-09-24T11:52:20;98730.75;;;20.22;48.13
73692;BME280;61996;49.910;35.562;2022-09-24T11:55:27;98738.56;;;20.48;48.89
73692;BME280;61996;49.910;35.562;2022-09-24T11:58:35;98736.69;;;20.65;46.72
73692;BME280;61996;49.910;35.562;2022-09-24T12:01:43;98748.63;;;20.94;46.21
73692;BME280;61996;49.910;35.562;2022-09-24T12:04:50;98749.13;;;20.89;46.52
73692;BME280;61996;49.910;35.562;2022-09-24T12:07:58;98755.81;;;21.24;45.37
73692;BME280;61996;49.910;35.562;2022-09-24T12:11:05;98759.22;;;21.10;46.75
73692;BME280;61996;49.910;35.562;2022-09-24T12:14:11;98760.38;;;21.16;46.66
73692;BME280;61996;49.910;35.562;2022-09-24T12:17:16;98763.75;;;21.10;45.85
73692;BME280;61996;49.910;35.562;2022-09-24T12:20:20;98757.00;;;21.22;45.58
73692;BME280;61996;49.910;35.562;2022-09-24T12:23:26;98751.22;;;21.10;45.28
73692;BME280;61996;49.910;35.562;2022-09-24T12:26:32;98751.69;;;21.14;44.97
73692;BME280;61996;49.910;35.562;2022-09-24T12:29:39;98740.47;;;21.18;44.54
73692;BME280;61996;49.910;35.562;2022-09-24T12:33:05;98734.53;;;21.08;45.77
73692;BME280;61996;49.910;35.562;2022-09-24T12:36:11;98729.00;;;21.10;44.53
73692;BME280;61996;49.910;35.562;2022-09-24T12:39:19;98734.34;;;21.10;44.41
73692;BME280;61996;49.910;35.562;2022-09-24T12:42:24;98732.69;;;21.08;44.62
73692;BME280;61996;49.910;35.562;2022-09-24T12:45:32;98733.09;;;20.89;44.71
73692;BME280;61996;49.910;35.562;2022-09-24T12:48:36;98734.16;;;20.80;45.00
73692;BME280;61996;49.910;35.562;2022-09-24T12:51:40;98734.34;;;20.70;44.49
73692;BME280;61996;49.910;35.562;2022-09-24T12:54:44;98728.38;;;20.60;44.86
73692;BME280;61996;49.910;35.562;2022-09-24T12:57:50;98732.72;;;20.37;44.79
73692;BME280;61996;49.910;35.562;2022-09-24T13:04:24;98736.28;;;20.05;44.88
73692;BME280;61996;49.910;35.562;2022-09-24T13:07:28;98745.47;;;19.94;46.24
73692;BME280;61996;49.910;35.562;2022-09-24T13:10:32;98751.97;;;19.75;46.21
73692;BME280;61996;49.910;35.562;2022-09-24T13:13:36;98752.38;;;19.46;47.43
73692;BME280;61996;49.910;35.562;2022-09-24T13:16:41;98746.69;;;19.25;46.92
73692;BME280;61996;49.910;35.562;2022-09-24T13:19:45;98750.59;;;19.04;47.57
73692;BME280;61996;49.910;35.562;2022-09-24T13:22:54;98746.06;;;18.88;47.26
73692;BME280;61996;49.910;35.562;2022-09-24T13:25:59;98737.22;;;18.88;47.31
73692;BME280;61996;49.910;35.562;2022-09-24T13:29:19;98737.88;;;18.82;47.66
73692;BME280;61996;49.910;35.562;2022-09-24T14:46:12;98747.63;;;19.58;50.20
73692;BME280;61996;49.910;35.562;2022-09-24T14:49:19;98747.44;;;19.59;50.08
73692;BME280;61996;49.910;35.562;2022-09-24T14:52:27;98760.78;;;19.59;50.12
73692;BME280;61996;49.910;35.562;2022-09-24T14:55:35;98766.97;;;19.76;49.26
73692;BME280;61996;49.910;35.562;2022-09-24T14:58:42;98754.47;;;19.85;49.42
73692;BME280;61996;49.910;35.562;2022-09-24T15:01:51;98755.97;;;19.95;50.99
73692;BME280;61996;49.910;35.562;2022-09-24T15:04:59;98746.78;;;20.06;49.98
73692;BME280;61996;49.910;35.562;2022-09-24T15:08:09;98762.31;;;20.11;49.98
73692;BME280;61996;49.910;35.562;2022-09-24T15:11:17;98756.44;;;20.15;49.48
73692;BME280;61996;49.910;35.562;2022-09-24T15:14:29;98761.28;;;20.20;49.53
73692;BME280;61996;49.910;35.562;2022-09-24T15:17:37;98761.94;;;20.22;49.21
73692;BME280;61996;49.910;35.562;2022-09-24T15:20:48;98766.97;;;20.25;49.01
73692;BME280;61996;49.910;35.562;2022-09-24T15:23:51;98775.47;;;20.20;49.21
73692;BME280;61996;49.910;35.562;2022-09-24T15:26:59;98784.97;;;20.23;48.57
73692;BME280;61996;49.910;35.562;2022-09-24T15:30:04;98799.03;;;20.17;48.38
73692;BME280;61996;49.910;35.562;2022-09-24T15:33:10;98805.19;;;20.17;48.41
73692;BME280;61996;49.910;35.562;2022-09-24T15:36:15;98810.19;;;20.20;48.72
73692;BME280;61996;49.910;35.562;2022-09-24T15:39:21;98814.19;;;20.08;49.06
73692;BME280;61996;49.910;35.562;2022-09-24T15:42:25;98814.69;;;20.12;48.97
73692;BME280;61996;49.910;35.562;2022-09-24T15:45:29;98819.19;;;20.11;49.06
73692;BME280;61996;49.910;35.562;2022-09-24T15:48:38;98809.19;;;19.97;49.41
73692;BME280;61996;49.910;35.562;2022-09-24T15:51:42;98813.00;;;19.86;49.98
73692;BME280;61996;49.910;35.562;2022-09-24T15:54:45;98814.00;;;19.77;50.09
73692;BME280;61996;49.910;35.562;2022-09-24T15:57:47;98819.16;;;19.79;50.24
73692;BME280;61996;49.910;35.562;2022-09-24T16:00:50;98818.66;;;19.75;50.92
73692;BME280;61996;49.910;35.562;2022-09-24T16:03:55;98814.31;;;19.74;50.94
73692;BME280;61996;49.910;35.562;2022-09-24T16:06:59;98808.47;;;19.70;51.66
73692;BME280;61996;49.910;35.562;2022-09-24T16:10:02;98812.81;;;19.71;51.97
73692;BME280;61996;49.910;35.562;2022-09-24T16:13:05;98809.78;;;19.66;52.08
73692;BME280;61996;49.910;35.562;2022-09-24T16:16:08;98814.47;;;19.64;52.09
73692;BME280;61996;49.910;35.562;2022-09-24T16:19:13;98805.63;;;19.64;52.49
73692;BME280;61996;49.910;35.562;2022-09-24T16:22:16;98808.78;;;19.59;52.20
73692;BME280;61996;49.910;35.562;2022-09-24T16:25:21;98829.88;;;19.44;52.50
73692;BME280;61996;49.910;35.562;2022-09-24T16:28:25;98830.25;;;19.50;52.62
73692;BME280;61996;49.910;35.562;2022-09-24T16:31:39;98834.06;;;19.47;52.51
73692;BME280;61996;49.910;35.562;2022-09-24T16:34:44;98832.06;;;19.41;52.00
73692;BME280;61996;49.910;35.562;2022-09-24T16:37:51;98829.34;;;19.33;51.98
73692;BME280;61996;49.910;35.562;2022-09-24T16:40:57;98832.00;;;19.33;52.15
73692;BME280;61996;49.910;35.562;2022-09-24T16:44:10;98833.53;;;19.35;51.68
73692;BME280;61996;49.910;35.562;2022-09-24T16:47:15;98825.16;;;19.30;52.04
73692;BME280;61996;49.910;35.562;2022-09-24T16:50:22;98832.81;;;19.25;52.09
73692;BME280;61996;49.910;35.562;2022-09-24T16:53:35;98830.13;;;19.17;51.94
73692;BME280;61996;49.910;35.562;2022-09-24T16:56:49;98832.47;;;19.20;51.96
73692;BME280;61996;49.910;35.562;2022-09-24T16:59:52;98829.47;;;19.23;52.06
73692;BME280;61996;49.910;35.562;2022-09-24T17:02:55;98838.63;;;19.21;51.82
73692;BME280;61996;49.910;35.562;2022-09-24T17:06:02;98834.63;;;19.16;51.97
73692;BME280;61996;49.910;35.562;2022-09-24T17:09:06;98833.28;;;19.12;51.84
73692;BME280;61996;49.910;35.562;2022-09-24T17:12:27;98851.22;;;19.10;52.13
73692;BME280;61996;49.910;35.562;2022-09-24T17:15:30;98843.75;;;19.06;51.97
73692;BME280;61996;49.910;35.562;2022-09-24T17:18:34;98844.03;;;19.03;52.03
73692;BME280;61996;49.910;35.562;2022-09-24T17:21:42;98843.94;;;19.12;51.78
73692;BME280;61996;49.910;35.562;2022-09-24T17:25:00;98832.28;;;19.13;52.04
73692;BME280;61996;49.910;35.562;2022-09-24T17:28:11;98845.91;;;19.10;52.22
73692;BME280;61996;49.910;35.562;2022-09-24T17:31:16;98842.41;;;19.10;52.07